ENSL weather

Sleipner A Platform
Norway

Public forecast

Using degrees Celsius for public forecast. Weather courtesy of forecast.io.

Current aviation weather report (METAR) for Sleipner A Platform

Retrieved 2019/10/19 10:20 UTC (25 minutes ago):

ENSL 191020Z AUTO 03021KT 9999NDV FEW012/// SCT067/// 11/09 Q0997 W09/S4

Closest aviation forecast (TAF) to Sleipner A Platform

Closest forecast is Stavanger Airport Sola, 120.6 nm (223.3 km) ENE. Retrieved 2019/10/19 06:57 UTC (4 hours ago):

TAF ENZV 190500Z 1906/2006 04005KT 9999 FEW020 BKN050 PROB40 TEMPO 1906/1920 SHRA BKN012 SCT020CB BECMG 1916/1918 13010KT TEMPO 1920/2006 SHRA FEW015 SCT030CB BECMG 2000/2003 VRB05KT